sensor_id;sensor_type;location;lat;lon;timestamp;P1;durP1;ratioP1;P2;durP2;ratioP2
56481;SDS011;42384;45.186;19.958;2023-08-31T00:00:24;8.85;;;6.82;;
56481;SDS011;42384;45.186;19.958;2023-08-31T00:02:51;6.97;;;6.28;;
56481;SDS011;42384;45.186;19.958;2023-08-31T00:05:23;7.65;;;6.10;;
56481;SDS011;42384;45.186;19.958;2023-08-31T00:07:54;9.13;;;5.88;;
56481;SDS011;42384;45.186;19.958;2023-08-31T00:10:23;7.18;;;5.22;;
56481;SDS011;42384;45.186;19.958;2023-08-31T00:12:51;6.05;;;4.65;;
56481;SDS011;42384;45.186;19.958;2023-08-31T00:15:18;7.75;;;4.80;;
56481;SDS011;42384;45.186;19.958;2023-08-31T00:17:44;8.35;;;4.68;;
56481;SDS011;42384;45.186;19.958;2023-08-31T00:20:10;5.43;;;4.43;;
56481;SDS011;42384;45.186;19.958;2023-08-31T00:22:37;7.75;;;4.90;;
56481;SDS011;42384;45.186;19.958;2023-08-31T00:25:04;7.07;;;4.38;;
56481;SDS011;42384;45.186;19.958;2023-08-31T00:27:35;7.55;;;4.25;;
56481;SDS011;42384;45.186;19.958;2023-08-31T00:30:06;6.05;;;3.58;;
56481;SDS011;42384;45.186;19.958;2023-08-31T00:32:36;9.50;;;4.10;;
56481;SDS011;42384;45.186;19.958;2023-08-31T00:35:04;7.88;;;3.58;;
56481;SDS011;42384;45.186;19.958;2023-08-31T00:37:31;6.05;;;3.90;;
56481;SDS011;42384;45.186;19.958;2023-08-31T00:39:57;5.07;;;3.55;;
56481;SDS011;42384;45.186;19.958;2023-08-31T00:42:23;6.05;;;3.42;;
56481;SDS011;42384;45.186;19.958;2023-08-31T00:44:51;7.85;;;2.95;;
56481;SDS011;42384;45.186;19.958;2023-08-31T00:47:17;3.90;;;2.97;;
56481;SDS011;42384;45.186;19.958;2023-08-31T00:50:00;3.55;;;2.67;;
56481;SDS011;42384;45.186;19.958;2023-08-31T00:52:30;3.30;;;2.20;;
56481;SDS011;42384;45.186;19.958;2023-08-31T00:54:59;4.03;;;2.10;;
56481;SDS011;42384;45.186;19.958;2023-08-31T00:57:31;3.53;;;1.77;;
56481;SDS011;42384;45.186;19.958;2023-08-31T00:59:58;3.45;;;1.92;;
56481;SDS011;42384;45.186;19.958;2023-08-31T01:02:30;3.75;;;1.70;;
56481;SDS011;42384;45.186;19.958;2023-08-31T01:05:11;6.85;;;3.40;;
56481;SDS011;42384;45.186;19.958;2023-08-31T01:07:41;6.00;;;3.25;;
56481;SDS011;42384;45.186;19.958;2023-08-31T01:10:18;6.88;;;5.70;;
56481;SDS011;42384;45.186;19.958;2023-08-31T01:15:18;3.42;;;1.80;;
56481;SDS011;42384;45.186;19.958;2023-08-31T01:17:56;4.60;;;1.88;;
56481;SDS011;42384;45.186;19.958;2023-08-31T01:20:28;5.65;;;2.60;;
56481;SDS011;42384;45.186;19.958;2023-08-31T01:22:55;5.65;;;2.47;;
56481;SDS011;42384;45.186;19.958;2023-08-31T01:25:26;4.35;;;2.22;;
56481;SDS011;42384;45.186;19.958;2023-08-31T01:28:00;9.63;;;2.30;;
56481;SDS011;42384;45.186;19.958;2023-08-31T01:30:37;3.28;;;2.28;;
56481;SDS011;42384;45.186;19.958;2023-08-31T01:33:03;8.48;;;2.25;;
56481;SDS011;42384;45.186;19.958;2023-08-31T01:35:30;5.22;;;2.28;;
56481;SDS011;42384;45.186;19.958;2023-08-31T01:37:59;3.10;;;1.88;;
56481;SDS011;42384;45.186;19.958;2023-08-31T01:40:37;5.18;;;2.00;;
56481;SDS011;42384;45.186;19.958;2023-08-31T01:43:09;2.80;;;1.60;;
56481;SDS011;42384;45.186;19.958;2023-08-31T01:45:39;3.00;;;1.52;;
56481;SDS011;42384;45.186;19.958;2023-08-31T01:48:07;5.03;;;2.33;;
56481;SDS011;42384;45.186;19.958;2023-08-31T01:50:36;7.72;;;2.33;;
56481;SDS011;42384;45.186;19.958;2023-08-31T01:53:02;5.05;;;1.70;;
56481;SDS011;42384;45.186;19.958;2023-08-31T01:55:32;2.80;;;1.52;;
56481;SDS011;42384;45.186;19.958;2023-08-31T01:57:58;4.45;;;1.33;;
56481;SDS011;42384;45.186;19.958;2023-08-31T02:00:25;6.60;;;1.58;;
56481;SDS011;42384;45.186;19.958;2023-08-31T02:02:52;2.55;;;1.17;;
56481;SDS011;42384;45.186;19.958;2023-08-31T02:05:18;5.18;;;1.52;;
56481;SDS011;42384;45.186;19.958;2023-08-31T02:07:44;2.90;;;1.42;;
56481;SDS011;42384;45.186;19.958;2023-08-31T02:10:10;4.07;;;1.10;;
56481;SDS011;42384;45.186;19.958;2023-08-31T02:12:41;4.28;;;1.27;;
56481;SDS011;42384;45.186;19.958;2023-08-31T02:15:08;3.70;;;1.10;;
56481;SDS011;42384;45.186;19.958;2023-08-31T02:17:34;14.65;;;1.60;;
56481;SDS011;42384;45.186;19.958;2023-08-31T02:20:01;7.28;;;1.65;;
56481;SDS011;42384;45.186;19.958;2023-08-31T02:22:33;3.55;;;1.35;;
56481;SDS011;42384;45.186;19.958;2023-08-31T02:25:02;3.95;;;1.23;;
56481;SDS011;42384;45.186;19.958;2023-08-31T02:27:28;5.57;;;1.10;;
56481;SDS011;42384;45.186;19.958;2023-08-31T02:29:55;2.83;;;1.27;;
56481;SDS011;42384;45.186;19.958;2023-08-31T02:32:23;2.83;;;1.42;;
56481;SDS011;42384;45.186;19.958;2023-08-31T02:34:51;1.80;;;1.20;;
56481;SDS011;42384;45.186;19.958;2023-08-31T02:37:18;6.47;;;1.35;;
56481;SDS011;42384;45.186;19.958;2023-08-31T02:39:44;3.08;;;1.73;;
56481;SDS011;42384;45.186;19.958;2023-08-31T02:42:10;6.10;;;1.40;;
56481;SDS011;42384;45.186;19.958;2023-08-31T02:44:36;3.83;;;1.75;;
56481;SDS011;42384;45.186;19.958;2023-08-31T02:47:08;5.05;;;1.65;;
56481;SDS011;42384;45.186;19.958;2023-08-31T02:49:34;6.88;;;1.90;;
56481;SDS011;42384;45.186;19.958;2023-08-31T02:52:07;3.05;;;2.35;;
56481;SDS011;42384;45.186;19.958;2023-08-31T02:54:38;4.90;;;2.38;;
56481;SDS011;42384;45.186;19.958;2023-08-31T02:57:09;4.45;;;3.28;;
56481;SDS011;42384;45.186;19.958;2023-08-31T02:59:40;5.07;;;3.42;;
56481;SDS011;42384;45.186;19.958;2023-08-31T03:02:07;6.65;;;2.65;;
56481;SDS011;42384;45.186;19.958;2023-08-31T03:04:41;8.98;;;2.13;;
56481;SDS011;42384;45.186;19.958;2023-08-31T03:07:07;2.90;;;2.00;;
56481;SDS011;42384;45.186;19.958;2023-08-31T03:09:33;3.45;;;2.20;;
56481;SDS011;42384;45.186;19.958;2023-08-31T03:12:04;4.60;;;2.30;;
56481;SDS011;42384;45.186;19.958;2023-08-31T03:14:32;10.90;;;2.22;;
56481;SDS011;42384;45.186;19.958;2023-08-31T03:16:59;7.95;;;2.28;;
56481;SDS011;42384;45.186;19.958;2023-08-31T03:19:25;2.92;;;2.03;;
56481;SDS011;42384;45.186;19.958;2023-08-31T03:21:51;3.15;;;2.13;;
56481;SDS011;42384;45.186;19.958;2023-08-31T03:24:18;4.82;;;1.95;;
56481;SDS011;42384;45.186;19.958;2023-08-31T03:26:44;4.45;;;1.58;;
56481;SDS011;42384;45.186;19.958;2023-08-31T03:29:12;5.22;;;1.40;;
56481;SDS011;42384;45.186;19.958;2023-08-31T03:31:39;4.25;;;1.25;;
56481;SDS011;42384;45.186;19.958;2023-08-31T03:34:10;5.47;;;1.83;;
56481;SDS011;42384;45.186;19.958;2023-08-31T03:36:36;7.03;;;1.63;;
56481;SDS011;42384;45.186;19.958;2023-08-31T03:39:05;3.95;;;1.58;;
56481;SDS011;42384;45.186;19.958;2023-08-31T03:41:33;3.55;;;1.60;;
56481;SDS011;42384;45.186;19.958;2023-08-31T03:44:01;4.57;;;2.22;;
56481;SDS011;42384;45.186;19.958;2023-08-31T03:46:30;5.32;;;1.73;;
56481;SDS011;42384;45.186;19.958;2023-08-31T03:48:56;2.13;;;1.60;;
56481;SDS011;42384;45.186;19.958;2023-08-31T03:51:23;4.32;;;2.42;;
56481;SDS011;42384;45.186;19.958;2023-08-31T03:53:49;5.40;;;2.92;;
56481;SDS011;42384;45.186;19.958;2023-08-31T03:56:15;7.82;;;2.97;;
56481;SDS011;42384;45.186;19.958;2023-08-31T03:58:41;4.55;;;3.42;;
56481;SDS011;42384;45.186;19.958;2023-08-31T04:01:10;5.32;;;2.97;;
56481;SDS011;42384;45.186;19.958;2023-08-31T04:03:43;5.88;;;3.80;;
56481;SDS011;42384;45.186;19.958;2023-08-31T04:06:09;6.80;;;3.60;;
56481;SDS011;42384;45.186;19.958;2023-08-31T04:08:35;6.22;;;3.72;;
56481;SDS011;42384;45.186;19.958;2023-08-31T04:11:02;13.98;;;4.90;;
56481;SDS011;42384;45.186;19.958;2023-08-31T04:13:30;5.80;;;4.50;;
56481;SDS011;42384;45.186;19.958;2023-08-31T04:15:59;4.47;;;3.92;;
56481;SDS011;42384;45.186;19.958;2023-08-31T04:18:28;6.28;;;3.78;;
56481;SDS011;42384;45.186;19.958;2023-08-31T04:20:55;5.05;;;4.00;;
56481;SDS011;42384;45.186;19.958;2023-08-31T04:23:24;7.47;;;4.18;;
56481;SDS011;42384;45.186;19.958;2023-08-31T04:25:55;8.68;;;4.22;;
56481;SDS011;42384;45.186;19.958;2023-08-31T04:28:25;7.15;;;4.50;;
56481;SDS011;42384;45.186;19.958;2023-08-31T04:30:52;6.40;;;4.40;;
56481;SDS011;42384;45.186;19.958;2023-08-31T04:33:18;8.45;;;4.90;;
56481;SDS011;42384;45.186;19.958;2023-08-31T04:35:44;8.20;;;4.93;;
56481;SDS011;42384;45.186;19.958;2023-08-31T04:38:11;6.60;;;5.15;;
56481;SDS011;42384;45.186;19.958;2023-08-31T04:40:37;5.35;;;4.40;;
56481;SDS011;42384;45.186;19.958;2023-08-31T04:43:08;5.47;;;4.68;;
56481;SDS011;42384;45.186;19.958;2023-08-31T04:45:37;5.68;;;3.35;;
56481;SDS011;42384;45.186;19.958;2023-08-31T04:48:03;7.82;;;3.42;;
56481;SDS011;42384;45.186;19.958;2023-08-31T04:50:30;6.80;;;3.75;;
56481;SDS011;42384;45.186;19.958;2023-08-31T04:52:56;4.32;;;3.58;;
56481;SDS011;42384;45.186;19.958;2023-08-31T04:55:23;5.32;;;3.85;;
56481;SDS011;42384;45.186;19.958;2023-08-31T04:57:50;3.97;;;3.15;;
56481;SDS011;42384;45.186;19.958;2023-08-31T05:00:17;5.07;;;3.30;;
56481;SDS011;42384;45.186;19.958;2023-08-31T05:02:43;4.63;;;3.40;;
56481;SDS011;42384;45.186;19.958;2023-08-31T05:05:09;5.03;;;3.15;;
56481;SDS011;42384;45.186;19.958;2023-08-31T05:07:36;7.22;;;3.40;;
56481;SDS011;42384;45.186;19.958;2023-08-31T05:10:02;6.85;;;3.10;;
56481;SDS011;42384;45.186;19.958;2023-08-31T05:12:29;4.82;;;3.50;;
56481;SDS011;42384;45.186;19.958;2023-08-31T05:14:55;7.13;;;3.17;;
56481;SDS011;42384;45.186;19.958;2023-08-31T05:17:21;12.10;;;3.92;;
56481;SDS011;42384;45.186;19.958;2023-08-31T05:19:50;4.00;;;3.08;;
56481;SDS011;42384;45.186;19.958;2023-08-31T05:22:16;9.82;;;3.75;;
56481;SDS011;42384;45.186;19.958;2023-08-31T05:24:43;9.40;;;3.15;;
56481;SDS011;42384;45.186;19.958;2023-08-31T05:27:09;5.82;;;3.35;;
56481;SDS011;42384;45.186;19.958;2023-08-31T05:29:35;4.22;;;3.22;;
56481;SDS011;42384;45.186;19.958;2023-08-31T05:32:01;4.72;;;3.45;;
56481;SDS011;42384;45.186;19.958;2023-08-31T05:34:28;6.18;;;3.55;;
56481;SDS011;42384;45.186;19.958;2023-08-31T05:36:59;8.02;;;2.90;;
56481;SDS011;42384;45.186;19.958;2023-08-31T05:39:26;7.47;;;3.25;;
56481;SDS011;42384;45.186;19.958;2023-08-31T05:41:52;7.00;;;2.95;;
56481;SDS011;42384;45.186;19.958;2023-08-31T05:44:21;7.20;;;3.05;;
56481;SDS011;42384;45.186;19.958;2023-08-31T05:49:13;5.32;;;3.47;;
56481;SDS011;42384;45.186;19.958;2023-08-31T05:51:42;5.25;;;3.25;;
56481;SDS011;42384;45.186;19.958;2023-08-31T05:54:08;5.85;;;3.40;;
56481;SDS011;42384;45.186;19.958;2023-08-31T05:56:42;4.35;;;2.53;;
56481;SDS011;42384;45.186;19.958;2023-08-31T05:59:08;3.42;;;2.35;;
56481;SDS011;42384;45.186;19.958;2023-08-31T06:01:39;5.55;;;2.75;;
56481;SDS011;42384;45.186;19.958;2023-08-31T06:04:06;8.38;;;3.70;;
56481;SDS011;42384;45.186;19.958;2023-08-31T06:06:32;5.90;;;3.30;;
56481;SDS011;42384;45.186;19.958;2023-08-31T06:09:05;5.72;;;3.58;;
56481;SDS011;42384;45.186;19.958;2023-08-31T06:11:34;8.25;;;3.60;;
56481;SDS011;42384;45.186;19.958;2023-08-31T06:14:05;4.90;;;3.17;;
56481;SDS011;42384;45.186;19.958;2023-08-31T06:16:31;3.92;;;3.00;;
56481;SDS011;42384;45.186;19.958;2023-08-31T06:18:58;5.28;;;3.20;;
56481;SDS011;42384;45.186;19.958;2023-08-31T06:21:24;9.50;;;3.63;;
56481;SDS011;42384;45.186;19.958;2023-08-31T06:23:55;4.32;;;3.50;;
56481;SDS011;42384;45.186;19.958;2023-08-31T06:26:26;4.75;;;3.80;;
56481;SDS011;42384;45.186;19.958;2023-08-31T06:28:52;7.47;;;3.95;;
56481;SDS011;42384;45.186;19.958;2023-08-31T06:31:23;7.03;;;4.28;;
56481;SDS011;42384;45.186;19.958;2023-08-31T06:33:50;11.15;;;5.00;;
56481;SDS011;42384;45.186;19.958;2023-08-31T06:36:18;9.18;;;5.20;;
56481;SDS011;42384;45.186;19.958;2023-08-31T06:38:47;6.70;;;4.53;;
56481;SDS011;42384;45.186;19.958;2023-08-31T06:41:13;6.15;;;4.60;;
56481;SDS011;42384;45.186;19.958;2023-08-31T06:43:47;9.15;;;4.97;;
56481;SDS011;42384;45.186;19.958;2023-08-31T06:46:18;7.05;;;4.47;;
56481;SDS011;42384;45.186;19.958;2023-08-31T06:48:44;7.72;;;5.10;;
56481;SDS011;42384;45.186;19.958;2023-08-31T06:51:10;7.93;;;4.80;;
56481;SDS011;42384;45.186;19.958;2023-08-31T06:53:36;7.68;;;4.68;;
56481;SDS011;42384;45.186;19.958;2023-08-31T06:56:03;9.75;;;4.10;;
56481;SDS011;42384;45.186;19.958;2023-08-31T06:58:29;8.75;;;4.80;;
56481;SDS011;42384;45.186;19.958;2023-08-31T07:00:58;8.13;;;4.85;;
56481;SDS011;42384;45.186;19.958;2023-08-31T07:03:25;7.78;;;4.82;;
56481;SDS011;42384;45.186;19.958;2023-08-31T07:05:51;6.28;;;3.80;;
56481;SDS011;42384;45.186;19.958;2023-08-31T07:08:18;7.10;;;4.50;;
56481;SDS011;42384;45.186;19.958;2023-08-31T07:10:44;6.65;;;3.85;;
56481;SDS011;42384;45.186;19.958;2023-08-31T07:13:12;8.85;;;4.72;;
56481;SDS011;42384;45.186;19.958;2023-08-31T07:15:38;6.07;;;4.28;;
56481;SDS011;42384;45.186;19.958;2023-08-31T07:18:07;7.35;;;4.30;;
56481;SDS011;42384;45.186;19.958;2023-08-31T07:20:34;7.03;;;4.35;;
56481;SDS011;42384;45.186;19.958;2023-08-31T07:23:00;5.47;;;4.45;;
56481;SDS011;42384;45.186;19.958;2023-08-31T07:25:26;66.03;;;46.25;;
56481;SDS011;42384;45.186;19.958;2023-08-31T07:27:53;5.60;;;3.42;;
56481;SDS011;42384;45.186;19.958;2023-08-31T07:30:25;5.30;;;3.05;;
56481;SDS011;42384;45.186;19.958;2023-08-31T07:32:51;8.07;;;4.35;;
56481;SDS011;42384;45.186;19.958;2023-08-31T07:35:19;6.97;;;3.55;;
56481;SDS011;42384;45.186;19.958;2023-08-31T07:37:48;9.75;;;6.00;;
56481;SDS011;42384;45.186;19.958;2023-08-31T07:40:19;5.82;;;3.65;;
56481;SDS011;42384;45.186;19.958;2023-08-31T07:42:45;10.95;;;7.05;;
56481;SDS011;42384;45.186;19.958;2023-08-31T07:45:16;6.53;;;4.35;;
56481;SDS011;42384;45.186;19.958;2023-08-31T07:47:43;6.65;;;4.85;;
56481;SDS011;42384;45.186;19.958;2023-08-31T07:50:16;5.90;;;3.95;;
56481;SDS011;42384;45.186;19.958;2023-08-31T07:52:43;5.45;;;4.20;;
56481;SDS011;42384;45.186;19.958;2023-08-31T07:55:09;20.25;;;15.90;;
56481;SDS011;42384;45.186;19.958;2023-08-31T07:57:35;8.60;;;6.53;;
56481;SDS011;42384;45.186;19.958;2023-08-31T08:00:13;10.93;;;5.57;;
56481;SDS011;42384;45.186;19.958;2023-08-31T08:02:42;9.25;;;6.03;;
56481;SDS011;42384;45.186;19.958;2023-08-31T08:05:08;9.05;;;5.72;;
56481;SDS011;42384;45.186;19.958;2023-08-31T08:07:34;7.80;;;5.85;;
56481;SDS011;42384;45.186;19.958;2023-08-31T08:10:03;7.13;;;5.25;;
56481;SDS011;42384;45.186;19.958;2023-08-31T08:12:39;8.38;;;5.35;;
56481;SDS011;42384;45.186;19.958;2023-08-31T08:15:06;7.65;;;4.68;;
56481;SDS011;42384;45.186;19.958;2023-08-31T08:17:35;6.35;;;4.15;;
56481;SDS011;42384;45.186;19.958;2023-08-31T08:20:02;4.97;;;4.40;;
56481;SDS011;42384;45.186;19.958;2023-08-31T08:22:28;8.07;;;4.75;;
56481;SDS011;42384;45.186;19.958;2023-08-31T08:24:55;10.43;;;5.05;;
56481;SDS011;42384;45.186;19.958;2023-08-31T08:27:21;5.60;;;4.10;;
56481;SDS011;42384;45.186;19.958;2023-08-31T08:29:51;4.82;;;4.05;;
56481;SDS011;42384;45.186;19.958;2023-08-31T08:32:20;5.90;;;4.20;;
56481;SDS011;42384;45.186;19.958;2023-08-31T08:34:49;4.50;;;3.55;;
56481;SDS011;42384;45.186;19.958;2023-08-31T08:37:16;7.88;;;5.03;;
56481;SDS011;42384;45.186;19.958;2023-08-31T08:39:42;10.05;;;4.22;;
56481;SDS011;42384;45.186;19.958;2023-08-31T08:42:09;8.05;;;4.82;;
56481;SDS011;42384;45.186;19.958;2023-08-31T08:44:36;7.65;;;4.32;;
56481;SDS011;42384;45.186;19.958;2023-08-31T08:47:03;6.32;;;3.80;;
56481;SDS011;42384;45.186;19.958;2023-08-31T08:49:31;7.53;;;4.63;;
56481;SDS011;42384;45.186;19.958;2023-08-31T08:52:01;5.15;;;3.88;;
56481;SDS011;42384;45.186;19.958;2023-08-31T08:54:28;5.63;;;4.03;;
56481;SDS011;42384;45.186;19.958;2023-08-31T08:56:59;4.35;;;3.67;;
56481;SDS011;42384;45.186;19.958;2023-08-31T08:59:26;5.70;;;4.35;;
56481;SDS011;42384;45.186;19.958;2023-08-31T09:04:18;5.03;;;4.10;;
56481;SDS011;42384;45.186;19.958;2023-08-31T09:06:47;5.75;;;3.90;;
56481;SDS011;42384;45.186;19.958;2023-08-31T09:09:14;5.65;;;4.00;;
56481;SDS011;42384;45.186;19.958;2023-08-31T09:11:43;5.95;;;4.07;;
56481;SDS011;42384;45.186;19.958;2023-08-31T09:14:18;7.30;;;3.78;;
56481;SDS011;42384;45.186;19.958;2023-08-31T09:16:48;4.82;;;4.05;;
56481;SDS011;42384;45.186;19.958;2023-08-31T09:19:23;6.78;;;4.13;;
56481;SDS011;42384;45.186;19.958;2023-08-31T09:21:55;7.47;;;4.25;;
56481;SDS011;42384;45.186;19.958;2023-08-31T09:24:27;6.00;;;4.22;;
56481;SDS011;42384;45.186;19.958;2023-08-31T09:26:56;6.05;;;4.45;;
56481;SDS011;42384;45.186;19.958;2023-08-31T09:29:22;5.75;;;4.20;;
56481;SDS011;42384;45.186;19.958;2023-08-31T09:31:51;4.53;;;3.83;;
56481;SDS011;42384;45.186;19.958;2023-08-31T09:34:17;8.63;;;4.38;;
56481;SDS011;42384;45.186;19.958;2023-08-31T09:36:46;5.55;;;3.78;;
56481;SDS011;42384;45.186;19.958;2023-08-31T09:39:15;3.95;;;3.10;;
56481;SDS011;42384;45.186;19.958;2023-08-31T09:41:55;5.47;;;3.75;;
56481;SDS011;42384;45.186;19.958;2023-08-31T09:44:28;4.20;;;3.47;;
56481;SDS011;42384;45.186;19.958;2023-08-31T09:49:21;6.88;;;3.17;;
56481;SDS011;42384;45.186;19.958;2023-08-31T09:51:50;4.82;;;3.03;;
56481;SDS011;42384;45.186;19.958;2023-08-31T09:54:23;4.85;;;2.85;;
56481;SDS011;42384;45.186;19.958;2023-08-31T09:56:53;3.85;;;3.03;;
56481;SDS011;42384;45.186;19.958;2023-08-31T09:59:22;4.28;;;3.58;;
56481;SDS011;42384;45.186;19.958;2023-08-31T10:01:48;4.35;;;3.25;;
56481;SDS011;42384;45.186;19.958;2023-08-31T10:04:14;3.47;;;2.97;;
56481;SDS011;42384;45.186;19.958;2023-08-31T10:06:48;4.57;;;3.10;;
56481;SDS011;42384;45.186;19.958;2023-08-31T10:09:15;4.93;;;3.10;;
56481;SDS011;42384;45.186;19.958;2023-08-31T10:11:46;5.30;;;3.38;;
56481;SDS011;42384;45.186;19.958;2023-08-31T10:14:15;9.43;;;6.47;;
56481;SDS011;42384;45.186;19.958;2023-08-31T10:16:45;4.15;;;3.28;;
56481;SDS011;42384;45.186;19.958;2023-08-31T10:19:19;5.75;;;4.03;;
56481;SDS011;42384;45.186;19.958;2023-08-31T10:21:46;5.03;;;4.13;;
56481;SDS011;42384;45.186;19.958;2023-08-31T10:24:12;4.70;;;3.90;;
56481;SDS011;42384;45.186;19.958;2023-08-31T10:26:38;7.35;;;4.55;;
56481;SDS011;42384;45.186;19.958;2023-08-31T10:29:05;8.68;;;4.28;;
56481;SDS011;42384;45.186;19.958;2023-08-31T10:31:32;5.45;;;4.45;;
56481;SDS011;42384;45.186;19.958;2023-08-31T10:34:02;4.60;;;3.17;;
56481;SDS011;42384;45.186;19.958;2023-08-31T10:36:36;4.57;;;3.58;;
56481;SDS011;42384;45.186;19.958;2023-08-31T10:39:20;5.38;;;4.25;;
56481;SDS011;42384;45.186;19.958;2023-08-31T10:41:53;5.35;;;4.03;;
56481;SDS011;42384;45.186;19.958;2023-08-31T10:44:25;7.82;;;5.07;;
56481;SDS011;42384;45.186;19.958;2023-08-31T10:46:52;6.63;;;4.90;;
56481;SDS011;42384;45.186;19.958;2023-08-31T10:49:23;6.97;;;5.50;;
56481;SDS011;42384;45.186;19.958;2023-08-31T10:54:23;7.45;;;5.72;;
56481;SDS011;42384;45.186;19.958;2023-08-31T10:59:19;6.65;;;5.97;;
56481;SDS011;42384;45.186;19.958;2023-08-31T11:01:58;9.75;;;6.28;;
56481;SDS011;42384;45.186;19.958;2023-08-31T11:04:26;11.00;;;6.97;;
56481;SDS011;42384;45.186;19.958;2023-08-31T11:09:40;10.55;;;8.27;;
56481;SDS011;42384;45.186;19.958;2023-08-31T11:14:37;7.82;;;6.13;;
56481;SDS011;42384;45.186;19.958;2023-08-31T11:17:04;18.00;;;13.98;;
56481;SDS011;42384;45.186;19.958;2023-08-31T11:19:31;13.88;;;10.70;;
56481;SDS011;42384;45.186;19.958;2023-08-31T11:21:58;10.95;;;9.65;;
56481;SDS011;42384;45.186;19.958;2023-08-31T11:24:32;23.15;;;16.05;;
56481;SDS011;42384;45.186;19.958;2023-08-31T11:29:24;10.45;;;8.80;;
56481;SDS011;42384;45.186;19.958;2023-08-31T11:31:50;7.88;;;7.07;;
56481;SDS011;42384;45.186;19.958;2023-08-31T11:34:21;12.15;;;10.18;;
56481;SDS011;42384;45.186;19.958;2023-08-31T11:36:48;8.00;;;7.18;;
56481;SDS011;42384;45.186;19.958;2023-08-31T11:41:41;10.68;;;7.32;;
56481;SDS011;42384;45.186;19.958;2023-08-31T11:44:11;12.80;;;9.45;;
56481;SDS011;42384;45.186;19.958;2023-08-31T11:46:42;13.57;;;9.80;;
56481;SDS011;42384;45.186;19.958;2023-08-31T11:49:08;10.70;;;8.75;;
56481;SDS011;42384;45.186;19.958;2023-08-31T11:51:35;10.63;;;7.72;;
56481;SDS011;42384;45.186;19.958;2023-08-31T11:54:02;9.85;;;8.80;;
56481;SDS011;42384;45.186;19.958;2023-08-31T11:58:57;7.88;;;7.07;;
56481;SDS011;42384;45.186;19.958;2023-08-31T12:01:23;8.50;;;7.45;;
56481;SDS011;42384;45.186;19.958;2023-08-31T12:03:50;8.50;;;7.47;;
56481;SDS011;42384;45.186;19.958;2023-08-31T12:06:18;148.80;;;113.95;;
56481;SDS011;42384;45.186;19.958;2023-08-31T12:08:47;104.95;;;82.05;;
56481;SDS011;42384;45.186;19.958;2023-08-31T12:11:14;81.53;;;65.53;;
56481;SDS011;42384;45.186;19.958;2023-08-31T12:16:13;54.17;;;40.13;;
56481;SDS011;42384;45.186;19.958;2023-08-31T12:18:41;19.52;;;15.27;;
56481;SDS011;42384;45.186;19.958;2023-08-31T12:21:07;29.55;;;25.30;;
56481;SDS011;42384;45.186;19.958;2023-08-31T12:23:38;29.75;;;23.55;;
56481;SDS011;42384;45.186;19.958;2023-08-31T12:26:05;19.90;;;17.70;;
56481;SDS011;42384;45.186;19.958;2023-08-31T12:28:33;14.18;;;12.70;;
56481;SDS011;42384;45.186;19.958;2023-08-31T12:30:59;11.07;;;9.75;;
56481;SDS011;42384;45.186;19.958;2023-08-31T12:33:29;8.82;;;8.02;;
56481;SDS011;42384;45.186;19.958;2023-08-31T12:36:00;11.55;;;10.35;;
56481;SDS011;42384;45.186;19.958;2023-08-31T12:38:29;15.15;;;11.15;;
56481;SDS011;42384;45.186;19.958;2023-08-31T12:40:58;10.40;;;9.38;;
56481;SDS011;42384;45.186;19.958;2023-08-31T12:43:29;12.07;;;10.88;;
56481;SDS011;42384;45.186;19.958;2023-08-31T12:45:56;11.60;;;10.50;;
56481;SDS011;42384;45.186;19.958;2023-08-31T12:48:23;11.60;;;10.55;;
56481;SDS011;42384;45.186;19.958;2023-08-31T12:50:49;10.70;;;9.68;;
56481;SDS011;42384;45.186;19.958;2023-08-31T12:53:23;13.48;;;11.45;;
56481;SDS011;42384;45.186;19.958;2023-08-31T12:55:54;15.10;;;12.60;;
56481;SDS011;42384;45.186;19.958;2023-08-31T12:58:20;15.52;;;13.85;;
56481;SDS011;42384;45.186;19.958;2023-08-31T13:00:51;14.75;;;13.40;;
56481;SDS011;42384;45.186;19.958;2023-08-31T13:03:18;15.68;;;14.20;;
56481;SDS011;42384;45.186;19.958;2023-08-31T13:05:44;14.60;;;13.20;;
56481;SDS011;42384;45.186;19.958;2023-08-31T13:08:14;12.50;;;11.43;;
56481;SDS011;42384;45.186;19.958;2023-08-31T13:10:40;12.45;;;11.25;;
56481;SDS011;42384;45.186;19.958;2023-08-31T13:13:08;13.50;;;12.05;;
56481;SDS011;42384;45.186;19.958;2023-08-31T13:15:37;12.10;;;10.68;;
56481;SDS011;42384;45.186;19.958;2023-08-31T13:18:03;12.65;;;11.30;;
56481;SDS011;42384;45.186;19.958;2023-08-31T13:20:29;12.05;;;10.95;;
56481;SDS011;42384;45.186;19.958;2023-08-31T13:22:55;12.15;;;11.05;;
56481;SDS011;42384;45.186;19.958;2023-08-31T13:25:22;11.98;;;10.93;;
56481;SDS011;42384;45.186;19.958;2023-08-31T13:27:48;13.73;;;12.40;;
56481;SDS011;42384;45.186;19.958;2023-08-31T13:30:14;11.52;;;10.48;;
56481;SDS011;42384;45.186;19.958;2023-08-31T13:32:41;10.85;;;9.95;;
56481;SDS011;42384;45.186;19.958;2023-08-31T13:35:07;9.88;;;8.50;;
56481;SDS011;42384;45.186;19.958;2023-08-31T13:37:35;9.60;;;8.70;;
56481;SDS011;42384;45.186;19.958;2023-08-31T13:40:04;11.32;;;9.93;;
56481;SDS011;42384;45.186;19.958;2023-08-31T13:42:35;10.27;;;9.07;;
56481;SDS011;42384;45.186;19.958;2023-08-31T13:45:05;9.63;;;6.85;;
56481;SDS011;42384;45.186;19.958;2023-08-31T13:47:32;7.40;;;6.70;;
56481;SDS011;42384;45.186;19.958;2023-08-31T13:49:58;7.88;;;6.07;;
56481;SDS011;42384;45.186;19.958;2023-08-31T13:52:24;9.38;;;6.22;;
56481;SDS011;42384;45.186;19.958;2023-08-31T13:54:55;9.05;;;5.03;;
56481;SDS011;42384;45.186;19.958;2023-08-31T13:57:21;6.40;;;4.97;;
56481;SDS011;42384;45.186;19.958;2023-08-31T13:59:50;5.45;;;3.90;;
56481;SDS011;42384;45.186;19.958;2023-08-31T14:02:16;4.97;;;3.72;;
56481;SDS011;42384;45.186;19.958;2023-08-31T14:04:44;8.52;;;3.97;;
56481;SDS011;42384;45.186;19.958;2023-08-31T14:07:10;6.13;;;4.60;;
56481;SDS011;42384;45.186;19.958;2023-08-31T14:09:39;5.40;;;4.03;;
56481;SDS011;42384;45.186;19.958;2023-08-31T14:12:07;5.63;;;4.45;;
56481;SDS011;42384;45.186;19.958;2023-08-31T14:14:34;8.27;;;4.80;;
56481;SDS011;42384;45.186;19.958;2023-08-31T14:17:00;6.40;;;4.30;;
56481;SDS011;42384;45.186;19.958;2023-08-31T14:19:29;5.90;;;4.30;;
56481;SDS011;42384;45.186;19.958;2023-08-31T14:22:05;6.20;;;4.10;;
56481;SDS011;42384;45.186;19.958;2023-08-31T14:24:37;5.07;;;4.45;;
56481;SDS011;42384;45.186;19.958;2023-08-31T14:27:03;8.07;;;4.45;;
56481;SDS011;42384;45.186;19.958;2023-08-31T14:29:30;4.25;;;3.85;;
56481;SDS011;42384;45.186;19.958;2023-08-31T14:31:57;6.47;;;3.90;;
56481;SDS011;42384;45.186;19.958;2023-08-31T14:34:23;5.03;;;3.28;;
56481;SDS011;42384;45.186;19.958;2023-08-31T14:36:50;6.72;;;3.97;;
56481;SDS011;42384;45.186;19.958;2023-08-31T14:39:22;7.30;;;3.70;;
56481;SDS011;42384;45.186;19.958;2023-08-31T14:41:54;5.50;;;3.10;;
56481;SDS011;42384;45.186;19.958;2023-08-31T14:44:25;7.13;;;3.42;;
56481;SDS011;42384;45.186;19.958;2023-08-31T14:46:51;4.63;;;3.28;;
56481;SDS011;42384;45.186;19.958;2023-08-31T14:49:22;4.93;;;3.30;;
56481;SDS011;42384;45.186;19.958;2023-08-31T14:51:51;4.88;;;2.88;;
56481;SDS011;42384;45.186;19.958;2023-08-31T14:54:17;7.38;;;3.70;;
56481;SDS011;42384;45.186;19.958;2023-08-31T14:56:51;4.32;;;2.85;;
56481;SDS011;42384;45.186;19.958;2023-08-31T14:59:17;5.65;;;3.10;;
56481;SDS011;42384;45.186;19.958;2023-08-31T15:01:47;6.40;;;3.25;;
56481;SDS011;42384;45.186;19.958;2023-08-31T15:04:13;8.23;;;3.03;;
56481;SDS011;42384;45.186;19.958;2023-08-31T15:06:40;5.15;;;3.17;;